createdAt,value
2017-10-13T00:02:02.696Z,10.7
2017-10-13T00:07:03.345Z,10.7
2017-10-13T00:12:02.955Z,10.6
2017-10-13T00:17:03.686Z,10.6
2017-10-13T00:22:03.361Z,10.6
2017-10-13T00:27:02.958Z,10.5
2017-10-13T00:32:03.627Z,10.5
2017-10-13T00:37:03.074Z,10.5
2017-10-13T00:42:02.719Z,10.4
2017-10-13T00:47:03.461Z,10.3
2017-10-13T00:52:02.876Z,10.4
2017-10-13T00:57:03.505Z,10.3
2017-10-13T01:02:03.094Z,10.3
2017-10-13T01:07:02.841Z,10.3
2017-10-13T01:12:03.461Z,10.3
2017-10-13T01:17:02.982Z,10.1
2017-10-13T01:22:03.480Z,10.1
2017-10-13T01:27:02.991Z,9.8
2017-10-13T01:32:03.512Z,9.8
2017-10-13T01:37:03.226Z,9.8
2017-10-13T01:42:03.192Z,9.8
2017-10-13T01:47:02.763Z,9.7
2017-10-13T01:52:02.977Z,9.4
2017-10-13T01:57:03.614Z,9.4
2017-10-13T02:02:03.131Z,9.4
2017-10-13T02:07:03.380Z,9.4
2017-10-13T02:12:03.216Z,9.6
2017-10-13T02:17:03.744Z,9.6
2017-10-13T02:22:03.276Z,9.8
2017-10-13T02:27:03.082Z,9.7
2017-10-13T02:32:03.638Z,9.8
2017-10-13T02:37:02.848Z,9.7
2017-10-13T02:42:02.997Z,9.6
2017-10-13T02:47:03.138Z,9.7
2017-10-13T02:52:03.258Z,9.6
2017-10-13T02:57:03.374Z,9.6
2017-10-13T03:02:03.719Z,9.6
2017-10-13T03:07:02.968Z,9.6
2017-10-13T03:12:03.207Z,9.5
2017-10-13T03:17:03.334Z,9.5
2017-10-13T03:22:03.537Z,9.4
2017-10-13T03:27:03.568Z,9.3
2017-10-13T03:32:02.808Z,9.4
2017-10-13T03:37:03.001Z,9.3
2017-10-13T03:42:03.096Z,9.4
2017-10-13T03:47:03.229Z,9.5
2017-10-13T03:52:03.377Z,9.4
2017-10-13T03:57:03.507Z,9.3
2017-10-13T04:02:03.001Z,9.3
2017-10-13T04:07:03.108Z,9.3
2017-10-13T04:12:03.274Z,9.4
2017-10-13T04:17:05.051Z,9.4
2017-10-13T04:22:03.549Z,9.3
2017-10-13T04:27:02.770Z,9.0
2017-10-13T04:32:02.934Z,8.9
2017-10-13T04:37:03.127Z,8.9
2017-10-13T04:42:03.068Z,9.0
2017-10-13T04:47:03.319Z,9.0
2017-10-13T04:52:03.346Z,8.9
2017-10-13T04:57:03.388Z,8.9
2017-10-13T05:02:03.849Z,8.5
2017-10-13T05:07:02.831Z,8.5
2017-10-13T05:12:03.097Z,8.6
2017-10-13T05:17:14.045Z,8.5
2017-10-13T05:22:03.621Z,8.5
2017-10-13T05:27:02.837Z,8.6
2017-10-13T05:32:17.976Z,8.5
2017-10-13T05:37:03.053Z,8.4
2017-10-13T05:42:03.388Z,8.4
2017-10-13T05:47:13.131Z,8.5
2017-10-13T05:52:03.023Z,8.7
2017-10-13T05:57:03.201Z,8.7
2017-10-13T06:02:13.759Z,8.9
2017-10-13T06:07:03.593Z,8.9
2017-10-13T06:12:02.870Z,9.0
2017-10-13T06:17:13.630Z,9.1
2017-10-13T06:22:03.339Z,9.1
2017-10-13T06:27:03.501Z,9.3
2017-10-13T06:32:14.073Z,9.3
2017-10-13T06:37:02.882Z,9.3
2017-10-13T06:42:03.070Z,9.4
2017-10-13T06:47:13.864Z,9.5
2017-10-13T06:52:02.599Z,9.4
2017-10-13T06:57:02.889Z,9.6
2017-10-13T07:02:13.662Z,10.0
2017-10-13T07:07:03.368Z,10.2
2017-10-13T07:12:02.646Z,10.2
2017-10-13T07:17:17.841Z,10.3
2017-10-13T07:22:03.210Z,10.4
2017-10-13T07:27:03.370Z,10.5
2017-10-13T07:32:14.146Z,10.6
2017-10-13T07:37:03.590Z,10.8
2017-10-13T07:42:02.784Z,10.9
2017-10-13T07:47:13.522Z,11.0
2017-10-13T07:52:02.950Z,11.2
2017-10-13T07:57:03.215Z,11.4
2017-10-13T08:02:18.032Z,12.1
2017-10-13T08:07:03.333Z,12.1
2017-10-13T08:12:03.619Z,12.5
2017-10-13T08:17:17.288Z,13.5
2017-10-13T08:22:02.679Z,13.5
2017-10-13T08:27:02.937Z,13.9
2017-10-13T08:32:13.590Z,14.4
2017-10-13T08:37:03.301Z,14.6
2017-10-13T08:42:03.528Z,14.4
2017-10-13T08:47:16.680Z,14.4
2017-10-13T08:52:03.231Z,14.6
2017-10-13T08:57:03.574Z,14.6
2017-10-13T09:02:13.591Z,14.6
2017-10-13T09:07:02.966Z,14.6
2017-10-13T09:12:03.344Z,14.8
2017-10-13T09:17:13.976Z,15.5
2017-10-13T09:22:03.374Z,16.0
2017-10-13T09:27:03.121Z,16.0
2017-10-13T09:32:16.664Z,17.0
2017-10-13T09:37:03.590Z,17.0
2017-10-13T09:42:03.510Z,17.8
2017-10-13T09:47:13.608Z,17.8
2017-10-13T09:52:03.241Z,18.7
2017-10-13T09:57:02.887Z,18.7
2017-10-13T10:02:13.670Z,19.5
2017-10-13T10:07:02.868Z,19.5
2017-10-13T10:12:03.094Z,20.3
2017-10-13T10:17:13.670Z,20.6
2017-10-13T10:22:03.591Z,21.0
2017-10-13T10:27:02.735Z,21.0
2017-10-13T10:32:12.544Z,21.8
2017-10-13T10:37:03.086Z,21.8
2017-10-13T10:42:02.668Z,22.5
2017-10-13T10:47:02.834Z,22.4
2017-10-13T10:52:03.099Z,22.8
2017-10-13T10:57:02.760Z,23.1
2017-10-13T11:02:17.186Z,23.5
2017-10-13T11:07:03.001Z,23.5
2017-10-13T11:12:03.372Z,23.8
2017-10-13T11:17:16.653Z,23.8
2017-10-13T11:22:03.521Z,23.9
2017-10-13T11:27:02.999Z,23.9
2017-10-13T11:32:13.763Z,24.1
2017-10-13T11:37:03.299Z,24.2
2017-10-13T11:42:03.164Z,24.3
2017-10-13T11:47:13.836Z,24.2
2017-10-13T11:52:03.074Z,24.3
2017-10-13T11:57:02.666Z,24.5
2017-10-13T12:02:12.888Z,24.6
2017-10-13T12:07:02.896Z,24.6
2017-10-13T12:12:03.390Z,24.6
2017-10-13T12:17:17.406Z,24.5
2017-10-13T12:22:03.167Z,24.8
2017-10-13T12:27:02.800Z,25.1
2017-10-13T12:32:13.412Z,25.2
2017-10-13T12:37:02.873Z,25.2
2017-10-13T12:42:03.179Z,25.6
2017-10-13T12:47:16.790Z,26.2
2017-10-13T12:52:03.429Z,26.7
2017-10-13T12:57:03.223Z,26.7
2017-10-13T13:12:03.918Z,27.9
2017-10-13T13:17:17.223Z,28.2
2017-10-13T13:22:02.756Z,28.5
2017-10-13T13:27:03.462Z,28.3
2017-10-13T13:32:16.503Z,28.3
2017-10-13T13:37:03.261Z,28.5
2017-10-13T13:42:02.826Z,28.4
2017-10-13T13:47:13.723Z,28.8
2017-10-13T13:52:03.058Z,29.3
2017-10-13T13:57:03.357Z,28.6
2017-10-13T14:02:07.976Z,28.6
2017-10-13T14:07:03.298Z,29.6
2017-10-13T14:12:02.834Z,30.6
2017-10-13T14:17:17.069Z,31.2
2017-10-13T14:22:03.548Z,32.1
2017-10-13T14:27:03.447Z,32.0
2017-10-13T14:32:17.395Z,33.6
2017-10-13T14:37:02.901Z,35.4
2017-10-13T14:42:03.184Z,36.8
2017-10-13T14:47:14.012Z,38.9
2017-10-13T14:52:03.486Z,38.8
2017-10-13T14:57:02.597Z,39.8
2017-10-13T15:02:13.366Z,40.3
2017-10-13T15:07:03.368Z,41.0
2017-10-13T15:12:02.752Z,41.0
2017-10-13T15:17:10.985Z,41.5
2017-10-13T15:22:03.128Z,42.3
2017-10-13T15:27:03.371Z,41.7
2017-10-13T15:32:13.803Z,39.5
2017-10-13T15:37:02.702Z,39.7
2017-10-13T15:42:02.867Z,39.5
2017-10-13T15:47:13.512Z,39.4
2017-10-13T15:52:02.989Z,39.4
2017-10-13T15:57:03.117Z,38.6
2017-10-13T16:02:17.739Z,38.0
2017-10-13T16:07:03.311Z,38.0
2017-10-13T16:12:03.611Z,36.6
2017-10-13T16:17:13.344Z,36.6
2017-10-13T16:22:03.381Z,35.7
2017-10-13T16:27:03.560Z,34.2
2017-10-13T16:32:11.504Z,30.4
2017-10-13T16:37:03.038Z,30.4
2017-10-13T16:42:03.177Z,26.2
2017-10-13T16:47:13.777Z,24.9
2017-10-13T16:52:02.773Z,24.8
2017-10-13T16:57:02.799Z,23.7
2017-10-13T17:02:13.631Z,21.9
2017-10-13T17:07:03.209Z,21.8
2017-10-13T17:12:03.487Z,21.3
2017-10-13T17:17:10.813Z,20.4
2017-10-13T17:22:02.752Z,20.3
2017-10-13T17:27:02.984Z,20.0
2017-10-13T17:32:05.315Z,19.4
2017-10-13T17:37:03.183Z,19.1
2017-10-13T17:42:03.333Z,19.0
2017-10-13T17:47:03.539Z,18.7
2017-10-13T17:52:03.504Z,17.6
2017-10-13T17:57:02.783Z,17.6
2017-10-13T18:02:03.247Z,17.0
2017-10-13T18:07:03.215Z,16.6
2017-10-13T18:12:03.517Z,16.3
2017-10-13T18:17:03.682Z,16.3
2017-10-13T18:22:02.885Z,16.0
2017-10-13T18:27:03.029Z,15.9
2017-10-13T18:32:03.238Z,15.9
2017-10-13T18:37:03.249Z,15.8
2017-10-13T18:42:03.303Z,15.7
2017-10-13T18:47:03.402Z,15.6
2017-10-13T18:52:03.526Z,15.6
2017-10-13T18:57:03.608Z,15.4
2017-10-13T19:02:02.893Z,15.1
2017-10-13T19:07:03.052Z,15.1
2017-10-13T19:12:03.296Z,15.0
2017-10-13T19:17:03.479Z,14.9
2017-10-13T19:22:03.555Z,14.9
2017-10-13T19:27:03.634Z,14.8
2017-10-13T19:32:02.816Z,14.5
2017-10-13T19:37:02.942Z,14.5
2017-10-13T19:42:03.023Z,14.4
2017-10-13T19:47:03.182Z,14.4
2017-10-13T19:52:03.181Z,14.2
2017-10-13T19:57:03.316Z,13.9
2017-10-13T20:02:03.397Z,13.7
2017-10-13T20:07:03.645Z,13.7
2017-10-13T20:12:02.890Z,13.6
2017-10-13T20:17:03.214Z,13.6
2017-10-13T20:22:03.211Z,13.5
2017-10-13T20:27:03.259Z,13.5
2017-10-13T20:32:03.381Z,13.4
2017-10-13T20:37:03.487Z,13.4
2017-10-13T20:42:03.436Z,13.4
2017-10-13T20:47:04.497Z,13.3
2017-10-13T20:52:02.801Z,13.2
2017-10-13T20:57:02.990Z,13.2
2017-10-13T21:02:03.419Z,12.8
2017-10-13T21:07:03.386Z,12.7
2017-10-13T21:12:03.603Z,12.7
2017-10-13T21:17:03.722Z,12.7
2017-10-13T21:22:02.878Z,12.6
2017-10-13T21:27:03.049Z,12.7
2017-10-13T21:32:03.129Z,12.6
2017-10-13T21:37:03.169Z,12.6
2017-10-13T21:42:03.291Z,12.5
2017-10-13T21:47:03.657Z,12.4
2017-10-13T21:52:03.468Z,12.3
2017-10-13T21:57:02.603Z,12.2
2017-10-13T22:02:03.104Z,12.1
2017-10-13T22:07:03.245Z,12.0
2017-10-13T22:12:03.325Z,12.0
2017-10-13T22:22:03.590Z,11.8
2017-10-13T22:27:02.712Z,11.8
2017-10-13T22:32:05.350Z,11.8
2017-10-13T22:37:02.869Z,11.7
2017-10-13T22:42:03.314Z,11.6
2017-10-13T22:47:02.863Z,11.4
2017-10-13T22:52:03.156Z,11.3
2017-10-13T22:57:03.540Z,11.3
2017-10-13T23:02:03.222Z,11.2
2017-10-13T23:07:03.355Z,11.2
2017-10-13T23:12:03.045Z,11.2
2017-10-13T23:17:03.679Z,11.2
2017-10-13T23:22:03.328Z,11.2
2017-10-13T23:27:02.966Z,11.2
2017-10-13T23:32:03.793Z,11.1
2017-10-13T23:37:03.080Z,11.1
2017-10-13T23:42:03.512Z,11.2
2017-10-13T23:47:03.253Z,11.1
2017-10-13T23:52:02.860Z,11.0
2017-10-13T23:57:03.342Z,11.0
